EW2566 Weather Reports


Display with metric or nautical units.
time (UTC)temp
F
wind
direction
speed
MPH
gust
MPH
rain 1hr
in
rain 24hr
in
rain mn
in
humidity
%
barometer
mb
20181215074024 35 168 9.0 17.0 0.00 0.00 0.00 63 1006.9
20181215073010 35 202 10.0 18.0 0.00 0.00 0.00 63 1007.1
20181215072017 35 183 11.0 17.0 0.00 0.00 0.00 63 1007.1
20181215071010 35 181 7.0 9.0 0.00 0.00 0.00 63 1007.4
20181215070023 35 149 9.0 14.0 0.00 0.00 0.00 63 1007.7
20181215065017 35 177 9.0 13.0 0.00 0.00 0.00 63 1007.9
20181215064017 35 190 10.0 16.0 0.00 0.00 0.00 63 1008.2
20181215063016 35 178 9.0 15.0 0.00 0.00 0.00 63 1008.1
20181215062018 35 241 9.0 16.0 0.00 0.00 0.00 63 1008.2
20181215061009 35 188 9.0 15.0 0.00 0.00 0.00 63 1008.3
20181215060023 35 186 8.0 13.0 0.00 0.00 0.00 63 1008.4
20181215055016 36 181 10.0 16.0 0.00 0.00 0.00 62 1008.3
20181215054017 35 170 11.0 16.0 0.00 0.00 0.00 63 1008.5
20181215053008 35 159 8.0 12.0 0.00 0.00 0.00 63 1008.6
20181215052021 35 174 7.0 11.0 0.00 0.00 0.00 62 1008.8
20181215051010 35 86 7.0 11.0 0.00 0.00 0.00 62 1009.4
20181215050023 35 156 8.0 14.0 0.00 0.00 0.00 62 1009.4
20181215045016 35 147 10.0 12.0 0.00 0.00 0.00 62 1009.4
20181215044017 35 189 10.0 16.0 0.00 0.00 0.00 62 1010.1
20181215043008 35 162 8.0 14.0 0.00 0.00 0.00 62 1010.2
20181215042019 35 190 7.0 17.0 0.00 0.00 0.00 62 1010.2
20181215041008 34 158 5.0 8.0 0.00 0.00 0.00 62 1010.6
20181215040023 35 268 8.0 13.0 0.00 0.00 0.00 62 1010.4
20181215035016 35 169 7.0 13.0 0.00 0.00 0.00 62 1010.9
20181215034017 35 160 6.0 9.0 0.00 0.00 0.00 62 1010.9
20181215033009 35 181 8.0 12.0 0.00 0.00 0.00 62 1010.9
20181215032020 35 171 7.0 12.0 0.00 0.00 0.00 62 1011.1
20181215031010 35 199 9.0 16.0 0.00 0.00 0.00 62 1011.3
20181215030023 35 198 8.0 11.0 0.00 0.00 0.00 62 1011.5
20181215025016 35 177 6.0 10.0 0.00 0.00 0.00 63 1011.8
20181215024017 35 177 7.0 11.0 0.00 0.00 0.00 63 1011.9
20181215023016 35 149 7.0 14.0 0.00 0.00 0.00 64 1012.0
20181215022021 35 207 7.0 11.0 0.00 0.00 0.00 64 1012.1
20181215021009 35 165 8.0 11.0 0.00 0.00 0.00 64 1012.2
20181215020022 35 185 8.0 14.0 0.00 0.00 0.00 64 1012.4
20181215015016 35 157 8.0 15.0 0.00 0.00 0.00 64 1012.6
20181215014017 35 190 9.0 11.0 0.00 0.00 0.00 64 1012.8
20181215013008 35 209 9.0 11.0 0.00 0.00 0.00 64 1012.6
20181215012021 35 190 8.0 11.0 0.00 0.00 0.00 64 1013.0
20181215011010 35 167 5.0 11.0 0.00 0.00 0.00 64 1013.1
20181215010023 35 153 7.0 9.0 0.00 0.00 0.00 64 1013.2
20181215005016 35 167 9.0 15.0 0.00 0.00 0.00 63 1013.3
20181215004017 35 209 8.0 12.0 0.00 0.00 0.00 63 1013.4
20181215003016 35 198 6.0 9.0 0.00 0.00 0.00 64 1013.6
20181215002027 35 171 6.0 8.0 0.00 0.00 0.00 64 1013.5
20181215001018 35 210 7.0 12.0 0.00 0.00 0.00 64 1013.3
20181215000113 35 174 7.0 11.0 0.00 0.00 0.00 65 1013.6
20181214235009 35 181 6.0 9.0 0.00 0.00 0.00 65 1013.6
20181214234022 35 203 7.0 11.0 0.00 0.00 0.00 66 1013.7
20181214233017 35 137 7.0 13.0 0.00 0.00 0.00 67 1013.6
20181214232017 35 188 5.0 9.0 0.00 0.00 0.00 67 1013.4
20181214231009 35 200 11.0 13.0 0.00 0.00 0.00 68 1013.7
20181214230022 35 153 6.0 12.0 0.00 0.00 0.00 69 1013.6
20181214225009 34 146 5.0 8.0 0.00 0.00 0.00 69 1013.9
20181214224022 34 173 5.0 8.0 0.00 0.00 0.00 69 1014.0
20181214223017 34 179 6.0 9.0 0.00 0.00 0.00 69 1014.4
20181214222017 34 175 7.0 9.0 0.00 0.00 0.00 69 1014.6
20181214221007 34 127 6.0 11.0 0.00 0.00 0.00 70 1014.6
20181214220022 34 169 5.0 8.0 0.00 0.00 0.00 70 1014.7
20181214215016 34 174 8.0 11.0 0.00 0.00 0.00 70 1014.9
20181214214014 34 178 6.0 15.0 0.00 0.00 0.00 70 1015.2
20181214213008 34 187 8.0 12.0 0.00 0.00 0.00 70 1015.4
20181214212019 34 171 6.0 10.0 0.00 0.00 0.00 70 1015.3
20181214211009 34 217 7.0 8.0 0.00 0.00 0.00 69 1015.6
20181214210022 34 157 7.0 11.0 0.00 0.00 0.00 69 1015.6
20181214205016 34 153 6.0 9.0 0.00 0.00 0.00 69 1015.4
20181214204016 34 169 7.0 11.0 0.00 0.00 0.00 69 1015.5
20181214203015 34 176 6.0 10.0 0.00 0.00 0.00 69 1015.6
20181214202020 34 185 6.0 9.0 0.00 0.00 0.00 69 1016.0
20181214201022 34 183 8.0 11.0 0.00 0.00 0.00 69 1015.9
20181214200016 34 90 7.0 12.0 0.00 0.00 0.00 70 1015.6
20181214195007 34 197 6.0 8.0 0.00 0.00 0.00 70 1015.5
20181214194020 33 141 5.0 7.0 0.00 0.00 0.00 70 1015.3
20181214193008 33 185 6.0 9.0 0.00 0.00 0.00 70 1015.3
20181214192022 33 162 4.0 8.0 0.00 0.00 0.00 70 1015.1
20181214191015 33 224 6.0 6.0 0.00 0.00 0.00 70 1015.1
20181214190016 33 208 5.0 6.0 0.00 0.00 0.00 70 1015.1
20181214185015 33 170 4.0 8.0 0.00 0.00 0.00 70 1015.2
20181214184020 33 136 4.0 7.0 0.00 0.00 0.00 70 1015.3
20181214183009 33 144 5.0 7.0 0.00 0.00 0.00 70 1015.4
20181214182022 33 159 3.0 5.0 0.00 0.00 0.00 70 1015.5
20181214181015 33 136 4.0 5.0 0.00 0.00 0.00 71 1015.4
20181214180017 33 159 3.0 6.0 0.00 0.00 0.00 71 1015.7
20181214175016 33 160 3.0 6.0 0.00 0.00 0.00 71 1015.9
20181214174020 33 178 3.0 4.0 0.00 0.00 0.00 71 1016.0
20181214173007 33 174 2.0 3.0 0.00 0.00 0.00 71 1016.1
20181214172022 33 126 2.0 4.0 0.00 0.00 0.00 70 1016.2
20181214171015 33 134 3.0 4.0 0.00 0.00 0.00 70 1016.2
20181214170017 33 162 2.0 4.0 0.00 0.00 0.00 70 1016.2
20181214165015 33 127 2.0 4.0 0.00 0.00 0.00 69 1016.4
20181214164018 33 170 2.0 4.0 0.00 0.00 0.00 68 1016.2
20181214163009 34 156 2.0 4.0 0.00 0.00 0.00 68 1016.3
20181214162022 34 146 2.0 3.0 0.00 0.00 0.00 66 1016.3
20181214161018 34 173 2.0 3.0 0.00 0.00 0.00 65 1016.4
20181214160017 34 149 3.0 3.0 0.00 0.00 0.00 64 1016.5
20181214155017 35 150 3.0 4.0 0.00 0.00 0.00 62 1016.6
20181214154016 36 173 2.0 4.0 0.00 0.00 0.00 61 1016.6
20181214153018 36 182 3.0 5.0 0.00 0.00 0.00 60 1016.6
20181214152017 37 177 5.0 9.0 0.00 0.00 0.00 60 1016.5
20181214151008 37 204 4.0 9.0 0.00 0.00 0.00 60 1016.5
20181214150018 37 185 4.0 6.0 0.00 0.00 0.00 61 1016.5
20181214145009 37 171 4.0 6.0 0.00 0.00 0.00 65 1016.3
20181214144022 38 176 5.0 9.0 0.00 0.00 0.00 65 1016.3
20181214143008 38 190 6.0 8.0 0.00 0.00 0.00 64 1016.2
20181214142021 38 193 5.0 8.0 0.00 0.00 0.00 64 1015.9
20181214141013 38 171 4.0 6.0 0.00 0.00 0.00 64 1015.8
20181214140021 39 183 5.0 6.0 0.00 0.00 0.00 64 1016.0
20181214135009 39 178 3.0 5.0 0.00 0.00 0.00 65 1015.9
20181214134022 38 159 5.0 10.0 0.00 0.00 0.00 65 1016.1
20181214133011 38 182 5.0 10.0 0.00 0.00 0.00 66 1016.1
20181214132024 38 185 6.0 8.0 0.00 0.00 0.00 66 1016.3
20181214131021 38 224 7.0 8.0 0.00 0.00 0.00 67 1016.4
20181214130024 38 201 6.0 9.0 0.00 0.00 0.00 67 1016.6
20181214125017 38 226 5.0 7.0 0.00 0.00 0.00 67 1016.5
20181214124014 37 187 7.0 11.0 0.00 0.00 0.00 67 1016.6
20181214123017 37 190 5.0 8.0 0.00 0.00 0.00 68 1016.7
20181214122017 37 187 6.0 8.0 0.00 0.00 0.00 69 1017.0
20181214121016 37 199 4.0 4.0 0.00 0.00 0.00 65 1016.9
20181214120017 37 193 4.0 8.0 0.00 0.00 0.00 65 1017.1
20181214115016 37 201 4.0 7.0 0.00 0.00 0.00 66 1017.2
20181214114017 37 173 3.0 4.0 0.00 0.00 0.00 66 1017.3
20181214113018 37 168 2.0 4.0 0.00 0.00 0.00 67 1017.5
20181214112017 37 217 2.0 3.0 0.00 0.00 0.00 68 1017.5
20181214111018 37 221 2.0 4.0 0.00 0.00 0.00 68 1017.6
20181214110017 36 239 3.0 4.0 0.00 0.00 0.00 69 1017.6
20181214105017 36 250 2.0 2.0 0.00 0.00 0.00 70 1017.5
20181214104017 36 244 3.0 4.0 0.00 0.00 0.00 72 1017.4
20181214103018 35 231 2.0 3.0 0.00 0.00 0.00 75 1017.4
20181214102017 34 246 2.0 3.0 0.00 0.00 0.00 75 1017.5
20181214101016 33 223 2.0 2.0 0.00 0.00 0.00 76 1017.4
20181214100017 32 181 2.0 2.0 0.00 0.00 0.00 77 1017.3
20181214095018 32 200 1.0 3.0 0.00 0.00 0.00 77 1017.0
20181214094016 32 181 2.0 3.0 0.00 0.00 0.00 78 1017.1
20181214093017 31 175 2.0 3.0 0.00 0.00 0.00 77 1016.8
20181214092016 30 184 1.0 3.0 0.00 0.00 0.00 76 1016.9
20181214091016 30 225 0.0 1.0 0.00 0.00 0.00 76 1016.8
20181214090017 30 0 0.0 0.0 0.00 0.00 0.00 76 1016.7
20181214085017 30 225 0.0 2.0 0.00 0.00 0.00 75 1016.6
20181214084018 30 178 0.0 2.0 0.00 0.00 0.00 75 1016.3
20181214083016 30 262 1.0 2.0 0.00 0.00 0.00 74 1016.1
20181214082016 31 220 2.0 3.0 0.00 0.00 0.00 73 1015.9
20181214081007 31 182 2.0 4.0 0.00 0.00 0.00 73 1015.5
20181214080018 31 176 2.0 3.0 0.00 0.00 0.00 73 1015.6
20181214075006 31 182 1.0 3.0 0.00 0.00 0.00 73 1015.6